createdAt,value
2018-04-12T00:00:39.787Z,0.00
2018-04-12T00:01:39.766Z,0.00
2018-04-12T00:02:39.747Z,0.00
2018-04-12T00:03:39.729Z,0.00
2018-04-12T00:04:39.708Z,0.00
2018-04-12T00:05:39.687Z,0.00
2018-04-12T00:06:39.669Z,0.00
2018-04-12T00:07:39.652Z,0.00
2018-04-12T00:08:39.634Z,0.00
2018-04-12T00:09:39.610Z,0.00
2018-04-12T00:10:39.594Z,0.00
2018-04-12T00:11:39.571Z,0.00
2018-04-12T00:12:39.563Z,0.00
2018-04-12T00:13:39.536Z,0.00
2018-04-12T00:14:39.515Z,0.00
2018-04-12T00:15:39.496Z,0.00
2018-04-12T00:16:39.482Z,0.00
2018-04-12T00:17:39.456Z,0.00
2018-04-12T00:18:39.437Z,0.00
2018-04-12T00:19:39.418Z,0.00
2018-04-12T00:20:39.401Z,0.00
2018-04-12T00:21:39.379Z,0.00
2018-04-12T00:22:39.362Z,0.00
2018-04-12T00:23:39.339Z,0.00
2018-04-12T00:24:39.332Z,0.00
2018-04-12T00:25:39.302Z,0.00
2018-04-12T00:26:39.283Z,0.00
2018-04-12T00:27:39.265Z,0.00
2018-04-12T00:28:39.245Z,0.00
2018-04-12T00:29:39.225Z,0.00
2018-04-12T00:30:39.207Z,0.00
2018-04-12T00:31:39.189Z,0.00
2018-04-12T00:32:39.168Z,0.00
2018-04-12T00:33:39.147Z,0.00
2018-04-12T00:34:39.127Z,0.00
2018-04-12T00:35:39.109Z,0.00
2018-04-12T00:36:39.090Z,0.00
2018-04-12T00:37:39.068Z,0.00
2018-04-12T00:38:39.053Z,0.00
2018-04-12T00:39:39.032Z,0.00
2018-04-12T00:40:39.012Z,0.00
2018-04-12T00:41:39.009Z,0.00
2018-04-12T00:42:38.973Z,0.00
2018-04-12T00:43:38.952Z,0.00
2018-04-12T00:44:38.933Z,0.00
2018-04-12T00:45:38.914Z,0.00
2018-04-12T00:46:38.894Z,0.00
2018-04-12T00:47:38.877Z,0.00
2018-04-12T00:48:38.855Z,0.00
2018-04-12T00:49:38.833Z,0.00
2018-04-12T00:50:38.815Z,0.00
2018-04-12T00:51:38.798Z,0.00
2018-04-12T00:52:38.776Z,0.00
2018-04-12T00:53:38.757Z,0.00
2018-04-12T00:54:38.736Z,0.00
2018-04-12T00:55:38.718Z,0.00
2018-04-12T00:56:38.698Z,0.00
2018-04-12T00:57:38.679Z,0.00
2018-04-12T00:58:38.660Z,0.00
2018-04-12T00:59:38.641Z,0.00
2018-04-12T01:00:38.622Z,0.00
2018-04-12T01:01:38.606Z,0.00
2018-04-12T01:02:38.581Z,0.00
2018-04-12T01:03:38.561Z,0.00
2018-04-12T01:04:38.544Z,0.00
2018-04-12T01:05:38.523Z,0.00
2018-04-12T01:06:38.502Z,0.00
2018-04-12T01:07:38.484Z,0.00
2018-04-12T01:08:38.464Z,0.00
2018-04-12T01:09:38.445Z,0.00
2018-04-12T01:10:38.426Z,0.00
2018-04-12T01:11:38.406Z,0.00
2018-04-12T01:12:38.387Z,0.00
2018-04-12T01:13:38.367Z,0.00
2018-04-12T01:14:38.346Z,0.00
2018-04-12T01:15:38.326Z,0.00
2018-04-12T01:16:38.333Z,0.00
2018-04-12T01:17:38.286Z,0.00
2018-04-12T01:18:38.267Z,0.00
2018-04-12T01:19:38.251Z,0.00
2018-04-12T01:20:38.228Z,0.00
2018-04-12T01:21:38.209Z,0.00
2018-04-12T01:22:38.190Z,0.00
2018-04-12T01:23:38.168Z,0.00
2018-04-12T01:24:38.148Z,0.00
2018-04-12T01:25:38.128Z,0.00
2018-04-12T01:26:38.109Z,0.00
2018-04-12T01:27:38.093Z,0.00
2018-04-12T01:28:38.074Z,0.00
2018-04-12T01:29:38.050Z,0.00
2018-04-12T01:30:38.029Z,0.00
2018-04-12T01:31:38.011Z,0.00
2018-04-12T01:32:37.996Z,0.00
2018-04-12T01:33:37.972Z,0.00
2018-04-12T01:34:37.949Z,0.00
2018-04-12T01:35:37.932Z,0.00
2018-04-12T01:36:37.914Z,0.00
2018-04-12T01:37:37.892Z,0.00
2018-04-12T01:38:37.873Z,0.00
2018-04-12T01:39:37.851Z,0.00
2018-04-12T01:40:37.834Z,0.00
2018-04-12T01:41:37.810Z,0.00
2018-04-12T01:42:37.792Z,0.00
2018-04-12T01:43:37.776Z,0.00
2018-04-12T01:44:37.751Z,0.00
2018-04-12T01:45:37.736Z,0.00
2018-04-12T01:46:37.721Z,0.00
2018-04-12T01:47:37.696Z,0.00
2018-04-12T01:48:37.673Z,0.00
2018-04-12T01:49:37.651Z,0.00
2018-04-12T01:50:37.632Z,0.00
2018-04-12T01:51:37.612Z,0.00
2018-04-12T01:52:37.592Z,0.00
2018-04-12T01:53:37.571Z,0.00
2018-04-12T01:54:37.554Z,0.00
2018-04-12T01:55:37.533Z,0.00
2018-04-12T01:56:37.520Z,0.00
2018-04-12T01:57:37.492Z,0.00
2018-04-12T01:58:37.472Z,0.00
2018-04-12T01:59:37.455Z,0.00
2018-04-12T02:00:37.432Z,0.00
2018-04-12T02:01:37.413Z,0.00
2018-04-12T02:02:37.393Z,0.00
2018-04-12T02:03:37.372Z,0.00
2018-04-12T02:04:37.355Z,0.00
2018-04-12T02:05:37.330Z,0.00
2018-04-12T02:06:37.316Z,0.00
2018-04-12T02:07:37.292Z,0.00
2018-04-12T02:08:37.272Z,0.00
2018-04-12T02:09:37.251Z,0.00
2018-04-12T02:10:37.239Z,0.00
2018-04-12T02:11:37.215Z,0.00
2018-04-12T02:12:37.194Z,0.00
2018-04-12T02:13:37.176Z,0.00
2018-04-12T02:14:37.153Z,0.00
2018-04-12T02:15:37.134Z,0.00
2018-04-12T02:16:37.115Z,0.00
2018-04-12T02:17:37.092Z,0.00
2018-04-12T02:18:37.072Z,0.00
2018-04-12T02:19:37.054Z,0.00
2018-04-12T02:20:37.051Z,0.00
2018-04-12T02:21:37.014Z,0.00
2018-04-12T02:22:36.993Z,0.00
2018-04-12T02:23:36.973Z,0.00
2018-04-12T02:24:36.952Z,0.00
2018-04-12T02:25:36.933Z,0.00
2018-04-12T02:26:36.912Z,0.00
2018-04-12T02:27:36.893Z,0.00
2018-04-12T02:28:36.874Z,0.00
2018-04-12T02:29:36.852Z,0.00
2018-04-12T02:30:36.832Z,0.00
2018-04-12T02:31:36.812Z,0.00
2018-04-12T02:32:36.791Z,0.00
2018-04-12T02:33:36.775Z,0.00
2018-04-12T02:34:36.751Z,0.00
2018-04-12T02:35:36.734Z,0.00
2018-04-12T02:36:36.720Z,0.00
2018-04-12T02:37:36.689Z,0.00
2018-04-12T02:38:36.671Z,0.00
2018-04-12T02:39:36.651Z,0.00
2018-04-12T02:40:36.632Z,0.00
2018-04-12T02:41:36.609Z,0.00
2018-04-12T02:42:36.591Z,0.00
2018-04-12T02:43:36.570Z,0.00
2018-04-12T02:44:36.550Z,0.00
2018-04-12T02:45:36.529Z,0.00
2018-04-12T02:46:36.510Z,0.00
2018-04-12T02:47:36.491Z,0.00
2018-04-12T02:48:36.468Z,0.00
2018-04-12T02:49:36.451Z,0.00
2018-04-12T02:50:36.444Z,0.00
2018-04-12T02:51:36.413Z,0.00
2018-04-12T02:52:36.387Z,0.00
2018-04-12T02:53:36.367Z,0.00
2018-04-12T02:54:36.347Z,0.00
2018-04-12T02:55:36.326Z,0.00
2018-04-12T02:56:36.305Z,0.00
2018-04-12T02:57:36.285Z,0.00
2018-04-12T02:58:36.267Z,0.00
2018-04-12T02:59:36.257Z,0.00
2018-04-12T03:00:36.249Z,0.00
2018-04-12T03:01:36.219Z,0.00
2018-04-12T03:02:36.898Z,0.00
2018-04-12T03:03:36.169Z,0.00
2018-04-12T03:04:36.147Z,0.00
2018-04-12T03:05:36.136Z,0.00
2018-04-12T03:06:36.121Z,0.00
2018-04-12T03:07:36.095Z,0.00
2018-04-12T03:08:36.059Z,0.00
2018-04-12T03:09:36.044Z,0.00
2018-04-12T03:10:36.019Z,0.00
2018-04-12T03:11:35.998Z,0.00
2018-04-12T03:12:35.978Z,0.00
2018-04-12T03:13:35.957Z,0.00
2018-04-12T03:14:35.939Z,0.00
2018-04-12T03:15:35.916Z,0.00
2018-04-12T03:16:35.905Z,0.00
2018-04-12T03:17:35.875Z,0.00
2018-04-12T03:18:35.862Z,0.00
2018-04-12T03:19:35.832Z,0.00
2018-04-12T03:20:35.813Z,0.00
2018-04-12T03:21:35.793Z,0.00
2018-04-12T03:22:35.773Z,0.00
2018-04-12T03:23:35.751Z,0.00
2018-04-12T03:24:35.731Z,0.00
2018-04-12T03:25:35.709Z,0.00
2018-04-12T03:26:35.689Z,0.00
2018-04-12T03:27:35.670Z,0.00
2018-04-12T03:28:35.650Z,0.00
2018-04-12T03:29:35.628Z,0.00
2018-04-12T03:30:35.608Z,0.00
2018-04-12T03:31:35.650Z,0.00
2018-04-12T03:32:35.567Z,0.00
2018-04-12T03:33:35.550Z,0.00
2018-04-12T03:34:35.523Z,0.00
2018-04-12T03:35:35.504Z,0.00
2018-04-12T03:36:35.485Z,0.00
2018-04-12T03:37:35.462Z,0.00
2018-04-12T03:38:35.441Z,0.00
2018-04-12T03:39:35.422Z,0.00
2018-04-12T03:40:35.401Z,0.00
2018-04-12T03:41:35.379Z,0.00
2018-04-12T03:42:35.360Z,0.00
2018-04-12T03:43:35.348Z,0.00
2018-04-12T03:44:35.318Z,0.00
2018-04-12T03:45:35.297Z,0.00
2018-04-12T03:46:35.275Z,0.00
2018-04-12T03:47:35.257Z,0.00
2018-04-12T03:48:35.296Z,0.00
2018-04-12T03:49:35.237Z,0.00
2018-04-12T03:50:35.237Z,0.00
2018-04-12T03:51:35.174Z,0.00
2018-04-12T03:52:35.153Z,0.00
2018-04-12T03:53:35.132Z,0.00
2018-04-12T03:54:35.113Z,0.00
2018-04-12T03:55:35.103Z,0.00
2018-04-12T03:56:35.075Z,0.00
2018-04-12T03:57:35.068Z,0.00
2018-04-12T03:58:35.027Z,0.00
2018-04-12T03:59:35.007Z,0.00
2018-04-12T04:00:34.986Z,0.00
2018-04-12T04:01:34.968Z,0.00
2018-04-12T04:02:34.984Z,0.00
2018-04-12T04:03:35.936Z,0.00
2018-04-12T04:04:34.902Z,0.00
2018-04-12T04:05:34.888Z,0.00
2018-04-12T04:06:34.863Z,0.00
2018-04-12T04:07:34.839Z,0.00
2018-04-12T04:08:34.820Z,0.00
2018-04-12T04:09:34.800Z,0.00
2018-04-12T04:10:34.779Z,0.00
2018-04-12T04:11:34.757Z,0.00
2018-04-12T04:12:34.738Z,0.00
2018-04-12T04:13:34.752Z,0.00
2018-04-12T04:14:34.696Z,0.00
2018-04-12T04:15:34.675Z,0.00
2018-04-12T04:16:34.652Z,0.00
2018-04-12T04:17:34.633Z,0.00
2018-04-12T04:18:34.644Z,0.00
2018-04-12T04:19:34.590Z,4.00
2018-04-12T04:20:34.570Z,4.00
2018-04-12T04:21:34.603Z,0.00
2018-04-12T04:22:34.599Z,0.00
2018-04-12T04:23:34.508Z,4.00
2018-04-12T04:24:34.517Z,4.00
2018-04-12T04:25:34.465Z,4.00
2018-04-12T04:26:34.473Z,4.00
2018-04-12T04:27:34.497Z,4.00
2018-04-12T04:28:34.488Z,8.00
2018-04-12T04:29:34.389Z,4.00
2018-04-12T04:30:34.364Z,8.00
2018-04-12T04:31:36.972Z,8.00
2018-04-12T04:32:34.353Z,8.00
2018-04-12T04:33:34.306Z,8.00
2018-04-12T04:34:34.277Z,8.00
2018-04-12T04:35:34.264Z,8.00
2018-04-12T04:36:34.237Z,12.00
2018-04-12T04:37:34.217Z,12.00
2018-04-12T04:38:34.239Z,16.00
2018-04-12T04:39:34.186Z,20.00
2018-04-12T04:40:34.175Z,20.00
2018-04-12T04:41:34.133Z,20.00
2018-04-12T04:42:34.113Z,24.00
2018-04-12T04:43:34.095Z,24.00
2018-04-12T04:44:34.072Z,28.00
2018-04-12T04:45:34.050Z,28.00
2018-04-12T04:46:34.035Z,24.00
2018-04-12T04:47:34.008Z,28.00
2018-04-12T04:48:33.992Z,32.00
2018-04-12T04:49:33.966Z,32.00
2018-04-12T04:50:33.946Z,36.00
2018-04-12T04:51:33.927Z,36.00
2018-04-12T04:52:33.907Z,36.00
2018-04-12T04:53:33.887Z,40.00
2018-04-12T04:54:33.865Z,44.00
2018-04-12T04:55:33.844Z,52.00
2018-04-12T04:56:33.822Z,56.00
2018-04-12T04:57:33.804Z,60.00
2018-04-12T04:58:33.781Z,68.00
2018-04-12T04:59:33.762Z,76.00
2018-04-12T05:00:33.740Z,80.00
2018-04-12T05:01:33.726Z,88.00
2018-04-12T05:02:33.704Z,92.00
2018-04-12T05:03:33.679Z,100.00
2018-04-12T05:04:33.659Z,96.00
2018-04-12T05:05:33.639Z,96.00
2018-04-12T05:06:33.634Z,92.00
2018-04-12T05:07:33.599Z,92.00
2018-04-12T05:08:33.618Z,96.00
2018-04-12T05:09:33.556Z,104.00
2018-04-12T05:10:33.535Z,108.00
2018-04-12T05:11:33.532Z,112.00
2018-04-12T05:12:33.505Z,112.00
2018-04-12T05:13:33.475Z,116.00
2018-04-12T05:14:33.465Z,112.00
2018-04-12T05:15:33.446Z,112.00
2018-04-12T05:16:33.414Z,112.00
2018-04-12T05:17:33.395Z,116.00
2018-04-12T05:18:33.374Z,120.00
2018-04-12T05:19:33.353Z,116.00
2018-04-12T05:20:33.333Z,116.00
2018-04-12T05:21:33.313Z,124.00
2018-04-12T05:22:33.300Z,120.00
2018-04-12T05:23:33.271Z,120.00
2018-04-12T05:24:33.251Z,116.00
2018-04-12T05:25:33.230Z,128.00
2018-04-12T05:26:33.212Z,132.00
2018-04-12T05:27:33.193Z,124.00
2018-04-12T05:28:33.172Z,124.00
2018-04-12T05:29:33.150Z,124.00
2018-04-12T05:30:33.130Z,136.00
2018-04-12T05:31:33.116Z,144.00
2018-04-12T05:32:33.094Z,148.00
2018-04-12T05:33:33.069Z,168.00
2018-04-12T05:34:33.048Z,172.00
2018-04-12T05:35:33.028Z,204.00
2018-04-12T05:36:33.009Z,200.00
2018-04-12T05:37:32.989Z,200.00
2018-04-12T05:38:32.968Z,196.00
2018-04-12T05:39:32.949Z,192.00
2018-04-12T05:40:32.935Z,176.00
2018-04-12T05:41:32.936Z,188.00
2018-04-12T05:42:32.925Z,240.00
2018-04-12T05:43:32.875Z,216.00
2018-04-12T05:44:32.863Z,204.00
2018-04-12T05:45:32.835Z,208.00
2018-04-12T05:46:32.810Z,232.00
2018-04-12T05:47:32.794Z,224.00
2018-04-12T05:48:32.768Z,236.00
2018-04-12T05:49:32.748Z,208.00
2018-04-12T05:50:32.731Z,196.00
2018-04-12T05:51:32.712Z,192.00
2018-04-12T05:52:32.689Z,188.00
2018-04-12T05:53:32.669Z,208.00
2018-04-12T05:54:32.650Z,200.00
2018-04-12T05:55:32.628Z,232.00
2018-04-12T05:56:32.627Z,252.00
2018-04-12T05:57:32.593Z,276.00
2018-04-12T05:58:32.578Z,264.00
2018-04-12T05:59:32.552Z,272.00
2018-04-12T06:00:32.528Z,264.00
2018-04-12T06:01:32.508Z,304.00
2018-04-12T06:02:32.492Z,328.00
2018-04-12T06:03:32.469Z,368.00
2018-04-12T06:04:32.463Z,376.00
2018-04-12T06:05:32.429Z,380.00
2018-04-12T06:06:32.410Z,368.00
2018-04-12T06:07:32.389Z,364.00
2018-04-12T06:08:32.372Z,368.00
2018-04-12T06:09:32.356Z,400.00
2018-04-12T06:10:32.334Z,360.00
2018-04-12T06:11:32.313Z,324.00
2018-04-12T06:12:32.294Z,328.00
2018-04-12T06:13:32.274Z,328.00
2018-04-12T06:14:32.252Z,336.00
2018-04-12T06:15:32.234Z,376.00
2018-04-12T06:16:32.217Z,384.00
2018-04-12T06:17:32.221Z,452.00
2018-04-12T06:18:32.198Z,516.00
2018-04-12T06:19:32.157Z,500.00
2018-04-12T06:20:32.138Z,544.00
2018-04-12T06:21:32.117Z,456.00
2018-04-12T06:22:32.098Z,472.00
2018-04-12T06:23:32.077Z,504.00
2018-04-12T06:24:32.057Z,528.00
2018-04-12T06:25:32.042Z,480.00
2018-04-12T06:26:32.019Z,468.00
2018-04-12T06:27:32.000Z,440.00
2018-04-12T06:28:32.039Z,472.00
2018-04-12T06:29:31.962Z,448.00
2018-04-12T06:30:31.941Z,528.00
2018-04-12T06:31:31.926Z,512.00
2018-04-12T06:32:31.903Z,604.00
2018-04-12T06:33:31.881Z,600.00
2018-04-12T06:34:31.864Z,532.00
2018-04-12T06:35:31.849Z,492.00
2018-04-12T06:36:31.825Z,428.00
2018-04-12T06:37:31.804Z,468.00
2018-04-12T06:38:31.785Z,456.00
2018-04-12T06:39:31.765Z,576.00
2018-04-12T06:40:31.745Z,576.00
2018-04-12T06:41:31.728Z,552.00
2018-04-12T06:42:31.706Z,556.00
2018-04-12T06:43:31.690Z,464.00
2018-04-12T06:44:31.671Z,532.00
2018-04-12T06:45:31.662Z,492.00
2018-04-12T06:46:31.632Z,520.00
2018-04-12T06:47:31.611Z,508.00
2018-04-12T06:48:31.593Z,448.00
2018-04-12T06:49:31.572Z,356.00
2018-04-12T06:50:31.550Z,304.00
2018-04-12T06:51:31.533Z,328.00
2018-04-12T06:52:31.516Z,300.00
2018-04-12T06:53:31.494Z,304.00
2018-04-12T06:54:31.473Z,308.00
2018-04-12T06:55:31.457Z,340.00
2018-04-12T06:56:31.441Z,380.00
2018-04-12T06:57:31.419Z,400.00
2018-04-12T06:58:31.399Z,372.00
2018-04-12T06:59:31.432Z,396.00
2018-04-12T07:00:31.361Z,372.00
2018-04-12T07:01:31.339Z,368.00
2018-04-12T07:02:31.320Z,396.00
2018-04-12T07:03:31.301Z,368.00
2018-04-12T07:04:31.281Z,376.00
2018-04-12T07:05:31.262Z,416.00
2018-04-12T07:06:31.247Z,488.00
2018-04-12T07:07:31.225Z,508.00
2018-04-12T07:08:31.205Z,512.00
2018-04-12T07:09:31.199Z,660.00
2018-04-12T07:10:31.165Z,680.00
2018-04-12T07:11:31.149Z,640.00
2018-04-12T07:12:31.126Z,560.00
2018-04-12T07:13:31.107Z,552.00
2018-04-12T07:14:31.087Z,576.00
2018-04-12T07:15:31.069Z,556.00
2018-04-12T07:16:31.049Z,624.00
2018-04-12T07:17:31.029Z,540.00
2018-04-12T07:18:31.011Z,572.00
2018-04-12T07:19:30.993Z,628.00
2018-04-12T07:20:30.970Z,608.00
2018-04-12T07:21:30.951Z,600.00
2018-04-12T07:22:30.934Z,600.00
2018-04-12T07:23:30.914Z,600.00
2018-04-12T07:24:30.898Z,652.00
2018-04-12T07:25:30.875Z,684.00
2018-04-12T07:26:30.856Z,688.00
2018-04-12T07:27:30.836Z,752.00
2018-04-12T07:28:30.818Z,680.00
2018-04-12T07:29:30.797Z,808.00
2018-04-12T07:30:30.778Z,904.00
2018-04-12T07:31:30.761Z,896.00
2018-04-12T07:32:30.740Z,1000.00
2018-04-12T07:33:30.721Z,976.00
2018-04-12T07:34:30.703Z,1132.00
2018-04-12T07:35:30.686Z,1248.00
2018-04-12T07:36:30.667Z,1232.00
2018-04-12T07:37:30.647Z,1104.00
2018-04-12T07:38:30.625Z,1304.00
2018-04-12T07:39:30.610Z,1056.00
2018-04-12T07:40:30.585Z,1136.00
2018-04-12T07:41:30.567Z,1464.00
2018-04-12T07:42:30.547Z,1532.00
2018-04-12T07:43:30.530Z,1300.00
2018-04-12T07:44:30.509Z,1472.00
2018-04-12T07:45:30.492Z,1508.00
2018-04-12T07:46:30.470Z,1476.00
2018-04-12T07:47:30.450Z,1696.00
2018-04-12T07:48:30.435Z,1500.00
2018-04-12T07:49:30.413Z,1468.00
2018-04-12T07:50:30.400Z,1568.00
2018-04-12T07:51:30.377Z,1456.00
2018-04-12T07:52:30.357Z,1720.00
2018-04-12T07:53:30.365Z,1532.00
2018-04-12T07:54:30.322Z,1452.00
2018-04-12T07:55:30.349Z,1364.00
2018-04-12T07:56:30.280Z,1584.00
2018-04-12T07:57:30.261Z,1328.00
2018-04-12T07:58:30.246Z,1308.00
2018-04-12T07:59:30.227Z,1264.00
2018-04-12T08:00:30.207Z,1548.00
2018-04-12T08:01:30.187Z,1428.00
2018-04-12T08:02:30.170Z,1464.00
2018-04-12T08:03:30.151Z,1640.00
2018-04-12T08:04:30.137Z,1652.00
2018-04-12T08:05:30.113Z,1520.00
2018-04-12T08:06:30.094Z,1528.00
2018-04-12T08:07:30.075Z,1672.00
2018-04-12T08:08:30.057Z,1712.00
2018-04-12T08:09:30.037Z,1632.00
2018-04-12T08:10:30.021Z,1636.00
2018-04-12T08:11:30.001Z,1820.00
2018-04-12T08:12:29.981Z,1924.00
2018-04-12T08:13:29.963Z,1968.00
2018-04-12T08:14:29.944Z,1984.00
2018-04-12T08:15:29.926Z,2004.00
2018-04-12T08:16:29.909Z,2028.00
2018-04-12T08:17:29.890Z,2064.00
2018-04-12T08:18:29.870Z,2084.00
2018-04-12T08:19:29.852Z,2116.00
2018-04-12T08:20:29.836Z,2188.00
2018-04-12T08:21:29.815Z,2256.00
2018-04-12T08:22:29.804Z,2368.00
2018-04-12T08:23:29.781Z,2440.00
2018-04-12T08:24:29.760Z,2476.00
2018-04-12T08:25:29.743Z,2428.00
2018-04-12T08:26:29.724Z,2296.00
2018-04-12T08:27:29.708Z,2204.00
2018-04-12T08:28:29.689Z,2024.00
2018-04-12T08:29:29.668Z,2016.00
2018-04-12T08:30:29.653Z,2128.00
2018-04-12T08:31:29.632Z,1988.00
2018-04-12T08:32:29.617Z,2076.00
2018-04-12T08:33:29.597Z,1932.00
2018-04-12T08:34:29.588Z,1908.00
2018-04-12T08:35:29.561Z,1820.00
2018-04-12T08:36:29.542Z,1820.00
2018-04-12T08:37:29.524Z,1892.00
2018-04-12T08:38:29.506Z,1964.00
2018-04-12T08:39:29.487Z,2028.00
2018-04-12T08:40:29.472Z,2044.00
2018-04-12T08:41:29.455Z,2020.00
2018-04-12T08:42:29.442Z,2004.00
2018-04-12T08:43:29.416Z,1976.00
2018-04-12T08:44:29.399Z,1912.00
2018-04-12T08:45:29.379Z,1860.00
2018-04-12T08:46:29.362Z,1816.00
2018-04-12T08:47:29.346Z,1764.00
2018-04-12T08:48:29.326Z,1728.00
2018-04-12T08:49:29.307Z,1708.00
2018-04-12T08:50:29.289Z,1640.00
2018-04-12T08:51:29.272Z,1680.00
2018-04-12T08:52:29.255Z,1696.00
2018-04-12T08:53:29.236Z,1700.00
2018-04-12T08:54:29.216Z,1692.00
2018-04-12T08:55:29.198Z,1660.00
2018-04-12T08:56:29.182Z,1628.00
2018-04-12T08:57:29.161Z,1608.00
2018-04-12T08:58:29.146Z,1584.00
2018-04-12T08:59:29.131Z,1552.00
2018-04-12T09:00:29.110Z,1500.00
2018-04-12T09:01:29.090Z,1432.00
2018-04-12T09:02:29.074Z,1344.00
2018-04-12T09:03:29.056Z,1240.00
2018-04-12T09:04:29.039Z,1160.00
2018-04-12T09:05:29.020Z,1100.00
2018-04-12T09:06:29.004Z,1064.00
2018-04-12T09:07:28.983Z,1036.00
2018-04-12T09:08:28.965Z,1012.00
2018-04-12T09:09:28.948Z,968.00
2018-04-12T09:10:28.928Z,916.00
2018-04-12T09:11:28.912Z,872.00
2018-04-12T09:12:28.894Z,832.00
2018-04-12T09:13:28.881Z,808.00
2018-04-12T09:14:28.855Z,808.00
2018-04-12T09:15:28.841Z,828.00
2018-04-12T09:16:28.834Z,880.00
2018-04-12T09:17:28.812Z,952.00
2018-04-12T09:18:28.787Z,1032.00
2018-04-12T09:19:28.765Z,1120.00
2018-04-12T09:20:28.753Z,1228.00
2018-04-12T09:21:28.726Z,1352.00
2018-04-12T09:22:28.715Z,1432.00
2018-04-12T09:23:28.692Z,1520.00
2018-04-12T09:24:28.675Z,1628.00
2018-04-12T09:25:28.655Z,1708.00
2018-04-12T09:26:28.642Z,1756.00
2018-04-12T09:27:28.618Z,1816.00
2018-04-12T09:28:28.601Z,1928.00
2018-04-12T09:29:28.583Z,2164.00
2018-04-12T09:30:28.566Z,2464.00
2018-04-12T09:31:28.547Z,2708.00
2018-04-12T09:32:28.531Z,2976.00
2018-04-12T09:33:28.513Z,3256.00
2018-04-12T09:34:28.492Z,3448.00
2018-04-12T09:35:28.473Z,3560.00
2018-04-12T09:36:28.456Z,3632.00
2018-04-12T09:37:28.439Z,3652.00
2018-04-12T09:38:28.422Z,3796.00
2018-04-12T09:39:28.402Z,3944.00
2018-04-12T09:40:28.383Z,4072.00
2018-04-12T09:41:28.365Z,4272.00
2018-04-12T09:42:28.349Z,4200.00
2018-04-12T09:43:28.344Z,4160.00
2018-04-12T09:44:28.314Z,4124.00
2018-04-12T09:45:28.295Z,4100.00
2018-04-12T09:46:28.281Z,4228.00
2018-04-12T09:47:28.259Z,4016.00
2018-04-12T09:48:28.241Z,4096.00
2018-04-12T09:49:28.273Z,4144.00
2018-04-12T09:50:28.208Z,4160.00
2018-04-12T09:51:28.190Z,4124.00
2018-04-12T09:52:28.173Z,4048.00
2018-04-12T09:53:28.156Z,4228.00
2018-04-12T09:54:28.139Z,4228.00
2018-04-12T09:55:28.123Z,4664.00
2018-04-12T09:56:28.109Z,4264.00
2018-04-12T09:57:28.090Z,3764.00
2018-04-12T09:58:28.078Z,3400.00
2018-04-12T09:59:28.061Z,2936.00
2018-04-12T10:00:28.056Z,2740.00
2018-04-12T10:01:28.030Z,2624.00
2018-04-12T10:02:28.006Z,2516.00
2018-04-12T10:03:27.990Z,2468.00
2018-04-12T10:04:27.974Z,2480.00
2018-04-12T10:05:27.955Z,2816.00
2018-04-12T10:06:27.939Z,3048.00
2018-04-12T10:07:27.923Z,3076.00
2018-04-12T10:08:27.908Z,3148.00
2018-04-12T10:09:27.890Z,3156.00
2018-04-12T10:10:27.874Z,3260.00
2018-04-12T10:11:27.855Z,3332.00
2018-04-12T10:12:27.843Z,3528.00
2018-04-12T10:13:27.823Z,3644.00
2018-04-12T10:14:27.808Z,3560.00
2018-04-12T10:15:27.791Z,3448.00
2018-04-12T10:16:27.773Z,3364.00
2018-04-12T10:17:27.790Z,3216.00
2018-04-12T10:18:27.752Z,3344.00
2018-04-12T10:19:27.724Z,3244.00
2018-04-12T10:20:27.709Z,3652.00
2018-04-12T10:21:27.691Z,3688.00
2018-04-12T10:22:27.674Z,3180.00
2018-04-12T10:23:27.667Z,3052.00
2018-04-12T10:24:27.643Z,3012.00
2018-04-12T10:25:27.626Z,3068.00
2018-04-12T10:26:27.609Z,3088.00
2018-04-12T10:27:27.602Z,3144.00
2018-04-12T10:28:27.580Z,3168.00
2018-04-12T10:29:27.560Z,3284.00
2018-04-12T10:30:27.556Z,3492.00
2018-04-12T10:31:27.528Z,4764.00
2018-04-12T10:32:27.511Z,4984.00
2018-04-12T10:33:27.501Z,5796.00
2018-04-12T10:34:27.484Z,8372.00
2018-04-12T10:35:27.464Z,11204.00
2018-04-12T10:36:27.445Z,9944.00
2018-04-12T10:37:27.431Z,9720.00
2018-04-12T10:38:27.419Z,8164.00
2018-04-12T10:39:27.435Z,8004.00
2018-04-12T10:40:27.389Z,10776.00
2018-04-12T10:41:27.368Z,7608.00
2018-04-12T10:42:27.354Z,13044.00
2018-04-12T10:43:27.338Z,10780.00
2018-04-12T10:44:27.343Z,10904.00
2018-04-12T10:45:27.316Z,20544.00
2018-04-12T10:46:27.308Z,17440.00
2018-04-12T10:47:27.283Z,11212.00
2018-04-12T10:48:27.272Z,22112.00
2018-04-12T10:49:27.254Z,23264.00
2018-04-12T10:50:27.254Z,23264.00
2018-04-12T10:51:27.235Z,21920.00
2018-04-12T10:52:27.224Z,20576.00
2018-04-12T10:53:27.206Z,19264.00
2018-04-12T10:54:27.195Z,20096.00
2018-04-12T10:55:27.185Z,20192.00
2018-04-12T10:56:27.176Z,16416.00
2018-04-12T10:57:27.167Z,10988.00
2018-04-12T10:58:27.157Z,14080.00
2018-04-12T10:59:27.209Z,13004.00
2018-04-12T11:00:27.147Z,16544.00
2018-04-12T11:01:27.130Z,10196.00
2018-04-12T11:02:27.125Z,16064.00
2018-04-12T11:03:27.139Z,18080.00
2018-04-12T11:04:27.109Z,8872.00
2018-04-12T11:05:27.100Z,19136.00
2018-04-12T11:06:27.093Z,10620.00
2018-04-12T11:07:27.087Z,7448.00
2018-04-12T11:08:27.079Z,8268.00
2018-04-12T11:09:27.074Z,15744.00
2018-04-12T11:10:27.070Z,15584.00
2018-04-12T11:11:27.056Z,23456.00
2018-04-12T11:12:27.049Z,17792.00
2018-04-12T11:13:27.042Z,15968.00
2018-04-12T11:14:27.037Z,19712.00
2018-04-12T11:15:27.030Z,10368.00
2018-04-12T11:16:27.022Z,10304.00
2018-04-12T11:17:27.020Z,4864.00
2018-04-12T11:18:27.085Z,4328.00
2018-04-12T11:19:27.002Z,7612.00
2018-04-12T11:20:27.015Z,7808.00
2018-04-12T11:21:26.986Z,23104.00
2018-04-12T11:22:26.980Z,23296.00
2018-04-12T11:23:27.001Z,23936.00
2018-04-12T11:24:26.999Z,23584.00
2018-04-12T11:25:26.960Z,23200.00
2018-04-12T11:26:26.952Z,22944.00
2018-04-12T11:27:26.945Z,21504.00
2018-04-12T11:28:26.937Z,22560.00
2018-04-12T11:29:26.940Z,23968.00
2018-04-12T11:30:26.925Z,23360.00
2018-04-12T11:31:26.922Z,23168.00
2018-04-12T11:32:26.917Z,23168.00
2018-04-12T11:33:26.933Z,23424.00
2018-04-12T11:34:26.921Z,22048.00
2018-04-12T11:35:26.902Z,23264.00
2018-04-12T11:36:26.982Z,20384.00
2018-04-12T11:37:26.912Z,18880.00
2018-04-12T11:39:27.974Z,9524.00
2018-04-12T11:41:26.913Z,16096.00
2018-04-12T11:42:27.226Z,16768.00
2018-04-12T11:43:27.167Z,18496.00
2018-04-12T11:44:27.042Z,18464.00
2018-04-12T11:45:26.881Z,16992.00
2018-04-12T11:46:26.864Z,15232.00
2018-04-12T11:47:26.863Z,12244.00
2018-04-12T11:48:26.859Z,10212.00
2018-04-12T11:49:26.856Z,9172.00
2018-04-12T11:50:26.855Z,9848.00
2018-04-12T11:51:26.855Z,10936.00
2018-04-12T11:52:26.865Z,14688.00
2018-04-12T11:53:26.847Z,17024.00
2018-04-12T11:54:26.840Z,19296.00
2018-04-12T11:55:26.887Z,20352.00
2018-04-12T11:56:26.865Z,19648.00
2018-04-12T11:57:26.897Z,21856.00
2018-04-12T11:58:26.848Z,18176.00
2018-04-12T11:59:26.877Z,21664.00
2018-04-12T12:00:26.835Z,22912.00
2018-04-12T12:01:26.854Z,22656.00
2018-04-12T12:02:26.827Z,21536.00
2018-04-12T12:03:26.831Z,22048.00
2018-04-12T12:04:26.805Z,18688.00
2018-04-12T12:05:26.801Z,20512.00
2018-04-12T12:06:26.982Z,20992.00
2018-04-12T12:09:59.004Z,22240.00
2018-04-12T12:10:58.950Z,22112.00
2018-04-12T12:12:52.431Z,23040.00
2018-04-12T12:13:52.339Z,21664.00
2018-04-12T12:15:45.718Z,23520.00
2018-04-12T12:16:45.716Z,23744.00
2018-04-12T12:17:45.765Z,19936.00
2018-04-12T12:18:45.699Z,9108.00
2018-04-12T12:19:45.697Z,19520.00
2018-04-12T12:20:45.695Z,20256.00
2018-04-12T12:21:45.697Z,4624.00
2018-04-12T12:22:45.738Z,5100.00
2018-04-12T12:23:45.811Z,15136.00
2018-04-12T12:24:45.937Z,22016.00
2018-04-12T12:25:45.736Z,10912.00
2018-04-12T12:26:45.757Z,23424.00
2018-04-12T12:27:45.840Z,17824.00
2018-04-12T12:28:45.820Z,8524.00
2018-04-12T12:29:45.937Z,20896.00
2018-04-12T12:30:45.807Z,20960.00
2018-04-12T12:31:46.171Z,20960.00
2018-04-12T12:32:45.745Z,18272.00
2018-04-12T12:33:45.797Z,6608.00
2018-04-12T12:34:45.835Z,7852.00
2018-04-12T12:35:45.749Z,21280.00
2018-04-12T12:36:45.752Z,7276.00
2018-04-12T12:37:45.726Z,7108.00
2018-04-12T12:38:45.895Z,20960.00
2018-04-12T12:39:46.165Z,14688.00
2018-04-12T12:40:45.715Z,21216.00